sensor_id;sensor_type;location;lat;lon;timestamp;P1;durP1;ratioP1;P2;durP2;ratioP2
2029;SDS011;1020;48.854;8.830;2022-07-22T00:02:00;7.83;;;7.33;;
2029;SDS011;1020;48.854;8.830;2022-07-22T00:04:27;7.50;;;7.00;;
2029;SDS011;1020;48.854;8.830;2022-07-22T00:06:54;8.00;;;7.40;;
2029;SDS011;1020;48.854;8.830;2022-07-22T00:09:22;7.37;;;6.87;;
2029;SDS011;1020;48.854;8.830;2022-07-22T00:11:48;7.57;;;6.97;;
2029;SDS011;1020;48.854;8.830;2022-07-22T00:14:15;7.07;;;6.57;;
2029;SDS011;1020;48.854;8.830;2022-07-22T00:16:42;6.83;;;6.33;;
2029;SDS011;1020;48.854;8.830;2022-07-22T00:19:09;7.50;;;7.00;;
2029;SDS011;1020;48.854;8.830;2022-07-22T00:21:36;6.90;;;6.40;;
2029;SDS011;1020;48.854;8.830;2022-07-22T00:24:03;7.10;;;6.60;;
2029;SDS011;1020;48.854;8.830;2022-07-22T00:26:32;7.17;;;6.67;;
2029;SDS011;1020;48.854;8.830;2022-07-22T00:28:58;6.57;;;6.00;;
2029;SDS011;1020;48.854;8.830;2022-07-22T00:31:25;7.17;;;6.57;;
2029;SDS011;1020;48.854;8.830;2022-07-22T00:33:52;8.37;;;7.73;;
2029;SDS011;1020;48.854;8.830;2022-07-22T00:36:19;8.90;;;8.20;;
2029;SDS011;1020;48.854;8.830;2022-07-22T00:38:46;8.70;;;8.10;;
2029;SDS011;1020;48.854;8.830;2022-07-22T00:41:12;7.77;;;7.17;;
2029;SDS011;1020;48.854;8.830;2022-07-22T00:43:50;7.50;;;7.00;;
2029;SDS011;1020;48.854;8.830;2022-07-22T00:46:18;8.10;;;7.50;;
2029;SDS011;1020;48.854;8.830;2022-07-22T00:48:44;8.40;;;7.80;;
2029;SDS011;1020;48.854;8.830;2022-07-22T00:51:11;8.03;;;7.37;;
2029;SDS011;1020;48.854;8.830;2022-07-22T00:53:38;8.57;;;7.90;;
2029;SDS011;1020;48.854;8.830;2022-07-22T00:56:05;8.70;;;7.77;;
2029;SDS011;1020;48.854;8.830;2022-07-22T00:58:33;8.50;;;7.90;;
2029;SDS011;1020;48.854;8.830;2022-07-22T01:01:01;8.90;;;8.20;;
2029;SDS011;1020;48.854;8.830;2022-07-22T01:03:27;8.80;;;8.20;;
2029;SDS011;1020;48.854;8.830;2022-07-22T01:05:54;8.60;;;8.00;;
2029;SDS011;1020;48.854;8.830;2022-07-22T01:08:21;9.30;;;8.60;;
2029;SDS011;1020;48.854;8.830;2022-07-22T01:10:48;8.33;;;7.73;;
2029;SDS011;1020;48.854;8.830;2022-07-22T01:13:15;8.50;;;7.90;;
2029;SDS011;1020;48.854;8.830;2022-07-22T01:15:42;8.70;;;8.10;;
2029;SDS011;1020;48.854;8.830;2022-07-22T01:18:10;8.40;;;7.70;;
2029;SDS011;1020;48.854;8.830;2022-07-22T01:20:38;8.07;;;7.47;;
2029;SDS011;1020;48.854;8.830;2022-07-22T01:23:05;7.40;;;6.90;;
2029;SDS011;1020;48.854;8.830;2022-07-22T01:25:32;8.63;;;8.03;;
2029;SDS011;1020;48.854;8.830;2022-07-22T01:27:58;8.90;;;8.30;;
2029;SDS011;1020;48.854;8.830;2022-07-22T01:30:25;8.30;;;7.60;;
2029;SDS011;1020;48.854;8.830;2022-07-22T01:32:52;8.40;;;7.80;;
2029;SDS011;1020;48.854;8.830;2022-07-22T01:35:19;7.73;;;7.23;;
2029;SDS011;1020;48.854;8.830;2022-07-22T01:37:47;8.70;;;8.00;;
2029;SDS011;1020;48.854;8.830;2022-07-22T01:40:14;8.13;;;7.53;;
2029;SDS011;1020;48.854;8.830;2022-07-22T01:42:40;9.13;;;8.43;;
2029;SDS011;1020;48.854;8.830;2022-07-22T01:45:08;10.73;;;9.90;;
2029;SDS011;1020;48.854;8.830;2022-07-22T01:47:35;8.90;;;8.30;;
2029;SDS011;1020;48.854;8.830;2022-07-22T01:50:02;8.77;;;8.17;;
2029;SDS011;1020;48.854;8.830;2022-07-22T01:52:30;8.70;;;8.10;;
2029;SDS011;1020;48.854;8.830;2022-07-22T01:54:58;8.80;;;8.20;;
2029;SDS011;1020;48.854;8.830;2022-07-22T01:57:25;9.23;;;8.50;;
2029;SDS011;1020;48.854;8.830;2022-07-22T01:59:52;8.77;;;8.17;;
2029;SDS011;1020;48.854;8.830;2022-07-22T02:02:18;8.60;;;8.00;;
2029;SDS011;1020;48.854;8.830;2022-07-22T02:04:45;9.90;;;9.20;;
2029;SDS011;1020;48.854;8.830;2022-07-22T02:07:12;9.67;;;8.93;;
2029;SDS011;1020;48.854;8.830;2022-07-22T02:09:39;8.47;;;7.67;;
2029;SDS011;1020;48.854;8.830;2022-07-22T02:12:07;9.30;;;8.60;;
2029;SDS011;1020;48.854;8.830;2022-07-22T02:14:34;11.30;;;10.40;;
2029;SDS011;1020;48.854;8.830;2022-07-22T02:17:01;9.63;;;8.93;;
2029;SDS011;1020;48.854;8.830;2022-07-22T02:19:28;9.90;;;9.20;;
2029;SDS011;1020;48.854;8.830;2022-07-22T02:21:55;10.00;;;9.20;;
2029;SDS011;1020;48.854;8.830;2022-07-22T02:24:21;9.93;;;9.27;;
2029;SDS011;1020;48.854;8.830;2022-07-22T02:26:48;9.87;;;8.97;;
2029;SDS011;1020;48.854;8.830;2022-07-22T02:29:16;9.57;;;8.77;;
2029;SDS011;1020;48.854;8.830;2022-07-22T02:31:43;10.60;;;9.77;;
2029;SDS011;1020;48.854;8.830;2022-07-22T02:34:10;9.17;;;8.47;;
2029;SDS011;1020;48.854;8.830;2022-07-22T02:36:37;8.93;;;8.23;;
2029;SDS011;1020;48.854;8.830;2022-07-22T02:39:03;10.03;;;9.13;;
2029;SDS011;1020;48.854;8.830;2022-07-22T02:41:31;13.70;;;12.60;;
2029;SDS011;1020;48.854;8.830;2022-07-22T02:43:58;10.37;;;9.47;;
2029;SDS011;1020;48.854;8.830;2022-07-22T02:46:26;11.00;;;10.10;;
2029;SDS011;1020;48.854;8.830;2022-07-22T02:48:54;11.87;;;10.60;;
2029;SDS011;1020;48.854;8.830;2022-07-22T02:51:21;9.47;;;8.77;;
2029;SDS011;1020;48.854;8.830;2022-07-22T02:53:48;9.60;;;8.90;;
2029;SDS011;1020;48.854;8.830;2022-07-22T02:56:15;9.57;;;8.80;;
2029;SDS011;1020;48.854;8.830;2022-07-22T02:58:42;10.23;;;9.43;;
2029;SDS011;1020;48.854;8.830;2022-07-22T03:01:10;10.50;;;9.70;;
2029;SDS011;1020;48.854;8.830;2022-07-22T03:03:38;11.23;;;10.33;;
2029;SDS011;1020;48.854;8.830;2022-07-22T03:06:05;10.10;;;9.30;;
2029;SDS011;1020;48.854;8.830;2022-07-22T03:08:32;13.20;;;12.10;;
2029;SDS011;1020;48.854;8.830;2022-07-22T03:10:59;10.43;;;9.63;;
2029;SDS011;1020;48.854;8.830;2022-07-22T03:13:26;10.53;;;9.50;;
2029;SDS011;1020;48.854;8.830;2022-07-22T03:15:53;10.30;;;9.60;;
2029;SDS011;1020;48.854;8.830;2022-07-22T03:18:20;9.60;;;8.90;;
2029;SDS011;1020;48.854;8.830;2022-07-22T03:20:48;10.83;;;9.93;;
2029;SDS011;1020;48.854;8.830;2022-07-22T03:23:15;11.60;;;10.80;;
2029;SDS011;1020;48.854;8.830;2022-07-22T03:25:42;10.33;;;9.53;;
2029;SDS011;1020;48.854;8.830;2022-07-22T03:28:09;11.00;;;10.20;;
2029;SDS011;1020;48.854;8.830;2022-07-22T03:30:35;10.23;;;9.43;;
2029;SDS011;1020;48.854;8.830;2022-07-22T03:33:02;10.03;;;9.23;;
2029;SDS011;1020;48.854;8.830;2022-07-22T03:35:30;9.90;;;9.23;;
2029;SDS011;1020;48.854;8.830;2022-07-22T03:37:58;11.23;;;10.30;;
2029;SDS011;1020;48.854;8.830;2022-07-22T03:40:24;11.33;;;10.53;;
2029;SDS011;1020;48.854;8.830;2022-07-22T03:42:51;12.70;;;11.70;;
2029;SDS011;1020;48.854;8.830;2022-07-22T03:45:18;14.33;;;13.03;;
2029;SDS011;1020;48.854;8.830;2022-07-22T03:47:45;12.10;;;10.90;;
2029;SDS011;1020;48.854;8.830;2022-07-22T03:50:12;11.43;;;10.53;;
2029;SDS011;1020;48.854;8.830;2022-07-22T03:52:38;11.33;;;10.43;;
2029;SDS011;1020;48.854;8.830;2022-07-22T03:55:07;11.60;;;10.70;;
2029;SDS011;1020;48.854;8.830;2022-07-22T03:57:34;12.30;;;11.30;;
2029;SDS011;1020;48.854;8.830;2022-07-22T04:00:00;11.20;;;10.40;;
2029;SDS011;1020;48.854;8.830;2022-07-22T04:02:27;12.00;;;11.00;;
2029;SDS011;1020;48.854;8.830;2022-07-22T04:04:54;11.00;;;10.20;;
2029;SDS011;1020;48.854;8.830;2022-07-22T04:07:21;11.70;;;10.77;;
2029;SDS011;1020;48.854;8.830;2022-07-22T04:09:47;9.97;;;9.27;;
2029;SDS011;1020;48.854;8.830;2022-07-22T04:12:15;9.93;;;9.13;;
2029;SDS011;1020;48.854;8.830;2022-07-22T04:14:42;10.87;;;10.07;;
2029;SDS011;1020;48.854;8.830;2022-07-22T04:17:09;10.27;;;9.47;;
2029;SDS011;1020;48.854;8.830;2022-07-22T04:19:36;10.43;;;9.57;;
2029;SDS011;1020;48.854;8.830;2022-07-22T04:22:02;11.83;;;10.90;;
2029;SDS011;1020;48.854;8.830;2022-07-22T04:24:29;11.73;;;10.83;;
2029;SDS011;1020;48.854;8.830;2022-07-22T04:26:56;10.40;;;9.60;;
2029;SDS011;1020;48.854;8.830;2022-07-22T04:29:24;9.77;;;9.07;;
2029;SDS011;1020;48.854;8.830;2022-07-22T04:31:51;10.60;;;9.80;;
2029;SDS011;1020;48.854;8.830;2022-07-22T04:34:17;12.40;;;11.40;;
2029;SDS011;1020;48.854;8.830;2022-07-22T04:36:44;13.23;;;12.13;;
2029;SDS011;1020;48.854;8.830;2022-07-22T04:39:11;11.40;;;10.60;;
2029;SDS011;1020;48.854;8.830;2022-07-22T04:41:37;12.67;;;11.43;;
2029;SDS011;1020;48.854;8.830;2022-07-22T04:44:04;11.13;;;10.30;;
2029;SDS011;1020;48.854;8.830;2022-07-22T04:46:33;10.33;;;9.37;;
2029;SDS011;1020;48.854;8.830;2022-07-22T04:48:59;11.73;;;10.67;;
2029;SDS011;1020;48.854;8.830;2022-07-22T04:51:26;11.60;;;10.70;;
2029;SDS011;1020;48.854;8.830;2022-07-22T04:53:53;10.50;;;9.80;;
2029;SDS011;1020;48.854;8.830;2022-07-22T04:56:21;11.77;;;10.87;;
2029;SDS011;1020;48.854;8.830;2022-07-22T04:58:47;14.70;;;13.33;;
2029;SDS011;1020;48.854;8.830;2022-07-22T05:01:14;13.80;;;12.70;;
2029;SDS011;1020;48.854;8.830;2022-07-22T05:03:43;14.07;;;12.97;;
2029;SDS011;1020;48.854;8.830;2022-07-22T05:06:09;13.20;;;12.10;;
2029;SDS011;1020;48.854;8.830;2022-07-22T05:08:36;14.80;;;13.53;;
2029;SDS011;1020;48.854;8.830;2022-07-22T05:11:03;13.07;;;12.07;;
2029;SDS011;1020;48.854;8.830;2022-07-22T05:13:30;14.23;;;13.13;;
2029;SDS011;1020;48.854;8.830;2022-07-22T05:15:57;13.03;;;12.03;;
2029;SDS011;1020;48.854;8.830;2022-07-22T05:18:28;13.70;;;12.70;;
2029;SDS011;1020;48.854;8.830;2022-07-22T05:20:56;13.90;;;12.70;;
2029;SDS011;1020;48.854;8.830;2022-07-22T05:23:23;14.47;;;13.17;;
2029;SDS011;1020;48.854;8.830;2022-07-22T05:25:50;14.27;;;13.07;;
2029;SDS011;1020;48.854;8.830;2022-07-22T05:28:17;14.20;;;12.90;;
2029;SDS011;1020;48.854;8.830;2022-07-22T05:30:44;14.80;;;13.50;;
2029;SDS011;1020;48.854;8.830;2022-07-22T05:33:11;12.63;;;11.43;;
2029;SDS011;1020;48.854;8.830;2022-07-22T05:35:38;12.83;;;11.70;;
2029;SDS011;1020;48.854;8.830;2022-07-22T05:38:06;13.47;;;12.40;;
2029;SDS011;1020;48.854;8.830;2022-07-22T05:40:33;13.00;;;11.80;;
2029;SDS011;1020;48.854;8.830;2022-07-22T05:42:59;12.80;;;11.70;;
2029;SDS011;1020;48.854;8.830;2022-07-22T05:45:26;12.00;;;10.90;;
2029;SDS011;1020;48.854;8.830;2022-07-22T05:47:53;13.83;;;12.67;;
2029;SDS011;1020;48.854;8.830;2022-07-22T05:50:20;14.33;;;13.03;;
2029;SDS011;1020;48.854;8.830;2022-07-22T05:52:46;12.50;;;11.50;;
2029;SDS011;1020;48.854;8.830;2022-07-22T05:55:14;12.67;;;11.57;;
2029;SDS011;1020;48.854;8.830;2022-07-22T05:57:41;13.40;;;12.20;;
2029;SDS011;1020;48.854;8.830;2022-07-22T06:00:09;12.70;;;11.80;;
2029;SDS011;1020;48.854;8.830;2022-07-22T06:02:36;11.73;;;10.73;;
2029;SDS011;1020;48.854;8.830;2022-07-22T06:05:03;11.47;;;10.57;;
2029;SDS011;1020;48.854;8.830;2022-07-22T06:07:30;12.00;;;10.97;;
2029;SDS011;1020;48.854;8.830;2022-07-22T06:09:57;15.13;;;12.13;;
2029;SDS011;1020;48.854;8.830;2022-07-22T06:12:25;11.43;;;10.60;;
2029;SDS011;1020;48.854;8.830;2022-07-22T06:14:52;10.60;;;9.63;;
2029;SDS011;1020;48.854;8.830;2022-07-22T06:17:19;10.93;;;10.03;;
2029;SDS011;1020;48.854;8.830;2022-07-22T06:19:46;10.67;;;9.80;;
2029;SDS011;1020;48.854;8.830;2022-07-22T06:22:13;10.77;;;9.97;;
2029;SDS011;1020;48.854;8.830;2022-07-22T06:24:42;10.53;;;9.63;;
2029;SDS011;1020;48.854;8.830;2022-07-22T06:27:09;10.53;;;9.63;;
2029;SDS011;1020;48.854;8.830;2022-07-22T06:29:37;11.27;;;10.27;;
2029;SDS011;1020;48.854;8.830;2022-07-22T06:32:05;10.93;;;10.07;;
2029;SDS011;1020;48.854;8.830;2022-07-22T06:34:33;11.07;;;10.17;;
2029;SDS011;1020;48.854;8.830;2022-07-22T06:37:00;11.23;;;10.43;;
2029;SDS011;1020;48.854;8.830;2022-07-22T06:39:27;9.50;;;8.60;;
2029;SDS011;1020;48.854;8.830;2022-07-22T06:41:54;10.43;;;9.50;;
2029;SDS011;1020;48.854;8.830;2022-07-22T06:44:21;11.60;;;10.60;;
2029;SDS011;1020;48.854;8.830;2022-07-22T06:46:49;10.60;;;9.80;;
2029;SDS011;1020;48.854;8.830;2022-07-22T06:49:15;10.60;;;9.60;;
2029;SDS011;1020;48.854;8.830;2022-07-22T06:51:42;9.40;;;8.70;;
2029;SDS011;1020;48.854;8.830;2022-07-22T06:54:09;10.87;;;9.87;;
2029;SDS011;1020;48.854;8.830;2022-07-22T06:56:36;9.60;;;8.90;;
2029;SDS011;1020;48.854;8.830;2022-07-22T06:59:02;10.63;;;9.80;;
2029;SDS011;1020;48.854;8.830;2022-07-22T07:01:29;10.00;;;9.30;;
2029;SDS011;1020;48.854;8.830;2022-07-22T07:03:57;10.83;;;10.03;;
2029;SDS011;1020;48.854;8.830;2022-07-22T07:06:24;10.10;;;9.30;;
2029;SDS011;1020;48.854;8.830;2022-07-22T07:08:51;9.33;;;8.40;;
2029;SDS011;1020;48.854;8.830;2022-07-22T07:11:22;9.47;;;8.77;;
2029;SDS011;1020;48.854;8.830;2022-07-22T07:13:49;9.67;;;8.87;;
2029;SDS011;1020;48.854;8.830;2022-07-22T07:16:16;9.37;;;8.67;;
2029;SDS011;1020;48.854;8.830;2022-07-22T07:18:44;9.03;;;8.33;;
2029;SDS011;1020;48.854;8.830;2022-07-22T07:21:12;9.40;;;8.70;;
2029;SDS011;1020;48.854;8.830;2022-07-22T07:23:38;9.10;;;8.40;;
2029;SDS011;1020;48.854;8.830;2022-07-22T07:26:05;9.00;;;8.30;;
2029;SDS011;1020;48.854;8.830;2022-07-22T07:28:32;8.70;;;8.10;;
2029;SDS011;1020;48.854;8.830;2022-07-22T07:30:59;9.17;;;8.47;;
2029;SDS011;1020;48.854;8.830;2022-07-22T07:33:26;8.00;;;7.40;;
2029;SDS011;1020;48.854;8.830;2022-07-22T07:35:53;8.17;;;7.57;;
2029;SDS011;1020;48.854;8.830;2022-07-22T07:38:21;7.87;;;7.27;;
2029;SDS011;1020;48.854;8.830;2022-07-22T07:40:48;8.43;;;7.73;;
2029;SDS011;1020;48.854;8.830;2022-07-22T07:43:14;8.13;;;7.53;;
2029;SDS011;1020;48.854;8.830;2022-07-22T07:45:41;6.90;;;6.40;;
2029;SDS011;1020;48.854;8.830;2022-07-22T07:48:08;8.23;;;7.43;;
2029;SDS011;1020;48.854;8.830;2022-07-22T07:50:36;7.60;;;6.90;;
2029;SDS011;1020;48.854;8.830;2022-07-22T07:53:03;6.80;;;6.30;;
2029;SDS011;1020;48.854;8.830;2022-07-22T07:55:32;8.30;;;6.67;;
2029;SDS011;1020;48.854;8.830;2022-07-22T07:58:01;6.70;;;6.20;;
2029;SDS011;1020;48.854;8.830;2022-07-22T08:00:27;7.40;;;6.83;;
2029;SDS011;1020;48.854;8.830;2022-07-22T08:02:57;6.63;;;6.23;;
2029;SDS011;1020;48.854;8.830;2022-07-22T08:05:24;7.33;;;6.63;;
2029;SDS011;1020;48.854;8.830;2022-07-22T08:07:51;6.93;;;6.53;;
2029;SDS011;1020;48.854;8.830;2022-07-22T08:10:18;7.60;;;6.90;;
2029;SDS011;1020;48.854;8.830;2022-07-22T08:12:47;6.77;;;6.27;;
2029;SDS011;1020;48.854;8.830;2022-07-22T08:15:14;7.60;;;7.00;;
2029;SDS011;1020;48.854;8.830;2022-07-22T08:17:41;8.20;;;7.60;;
2029;SDS011;1020;48.854;8.830;2022-07-22T08:20:08;7.00;;;6.40;;
2029;SDS011;1020;48.854;8.830;2022-07-22T08:22:35;7.10;;;6.50;;
2029;SDS011;1020;48.854;8.830;2022-07-22T08:25:02;7.57;;;6.90;;
2029;SDS011;1020;48.854;8.830;2022-07-22T08:27:29;6.70;;;6.30;;
2029;SDS011;1020;48.854;8.830;2022-07-22T08:29:57;9.10;;;6.90;;
2029;SDS011;1020;48.854;8.830;2022-07-22T08:32:24;7.83;;;7.23;;
2029;SDS011;1020;48.854;8.830;2022-07-22T08:34:51;8.20;;;7.47;;
2029;SDS011;1020;48.854;8.830;2022-07-22T08:37:17;7.70;;;7.20;;
2029;SDS011;1020;48.854;8.830;2022-07-22T08:39:44;6.80;;;6.40;;
2029;SDS011;1020;48.854;8.830;2022-07-22T08:42:11;6.83;;;6.37;;
2029;SDS011;1020;48.854;8.830;2022-07-22T08:44:39;7.27;;;6.80;;
2029;SDS011;1020;48.854;8.830;2022-07-22T08:47:07;7.07;;;6.57;;
2029;SDS011;1020;48.854;8.830;2022-07-22T08:49:34;7.33;;;6.83;;
2029;SDS011;1020;48.854;8.830;2022-07-22T08:52:01;6.57;;;6.07;;
2029;SDS011;1020;48.854;8.830;2022-07-22T08:54:28;7.63;;;7.00;;
2029;SDS011;1020;48.854;8.830;2022-07-22T08:56:55;7.17;;;6.47;;
2029;SDS011;1020;48.854;8.830;2022-07-22T08:59:22;7.30;;;6.70;;
2029;SDS011;1020;48.854;8.830;2022-07-22T09:02:08;6.50;;;6.10;;
2029;SDS011;1020;48.854;8.830;2022-07-22T09:04:49;7.20;;;6.70;;
2029;SDS011;1020;48.854;8.830;2022-07-22T09:07:28;7.60;;;7.00;;
2029;SDS011;1020;48.854;8.830;2022-07-22T09:09:56;7.00;;;6.50;;
2029;SDS011;1020;48.854;8.830;2022-07-22T09:12:24;7.77;;;7.17;;
2029;SDS011;1020;48.854;8.830;2022-07-22T09:14:55;7.17;;;6.67;;
2029;SDS011;1020;48.854;8.830;2022-07-22T09:17:25;6.57;;;6.17;;
2029;SDS011;1020;48.854;8.830;2022-07-22T09:19:52;7.97;;;7.47;;
2029;SDS011;1020;48.854;8.830;2022-07-22T09:22:36;8.50;;;7.77;;
2029;SDS011;1020;48.854;8.830;2022-07-22T09:25:17;7.10;;;6.50;;
2029;SDS011;1020;48.854;8.830;2022-07-22T09:27:51;6.87;;;6.33;;
2029;SDS011;1020;48.854;8.830;2022-07-22T09:30:20;6.97;;;6.50;;
2029;SDS011;1020;48.854;8.830;2022-07-22T09:32:49;7.23;;;6.67;;
2029;SDS011;1020;48.854;8.830;2022-07-22T09:35:16;5.83;;;5.53;;
2029;SDS011;1020;48.854;8.830;2022-07-22T09:37:48;7.83;;;7.13;;
2029;SDS011;1020;48.854;8.830;2022-07-22T09:40:17;6.90;;;6.27;;
2029;SDS011;1020;48.854;8.830;2022-07-22T09:42:45;5.67;;;5.27;;
2029;SDS011;1020;48.854;8.830;2022-07-22T09:45:13;6.40;;;5.90;;
2029;SDS011;1020;48.854;8.830;2022-07-22T09:47:41;6.73;;;6.23;;
2029;SDS011;1020;48.854;8.830;2022-07-22T09:50:20;9.93;;;6.70;;
2029;SDS011;1020;48.854;8.830;2022-07-22T09:52:48;7.57;;;7.07;;
2029;SDS011;1020;48.854;8.830;2022-07-22T09:55:17;7.20;;;6.60;;
2029;SDS011;1020;48.854;8.830;2022-07-22T09:57:45;7.70;;;7.07;;
2029;SDS011;1020;48.854;8.830;2022-07-22T10:00:13;6.83;;;6.33;;
2029;SDS011;1020;48.854;8.830;2022-07-22T10:02:44;7.10;;;6.50;;
2029;SDS011;1020;48.854;8.830;2022-07-22T10:05:13;6.67;;;6.20;;
2029;SDS011;1020;48.854;8.830;2022-07-22T10:07:42;6.87;;;6.40;;
2029;SDS011;1020;48.854;8.830;2022-07-22T10:10:13;6.90;;;6.20;;
2029;SDS011;1020;48.854;8.830;2022-07-22T10:12:41;7.23;;;6.63;;
2029;SDS011;1020;48.854;8.830;2022-07-22T10:15:09;7.03;;;6.37;;
2029;SDS011;1020;48.854;8.830;2022-07-22T10:17:37;6.93;;;6.53;;
2029;SDS011;1020;48.854;8.830;2022-07-22T10:20:07;7.90;;;7.30;;
2029;SDS011;1020;48.854;8.830;2022-07-22T10:22:50;7.30;;;6.70;;
2029;SDS011;1020;48.854;8.830;2022-07-22T10:25:21;7.37;;;6.80;;
2029;SDS011;1020;48.854;8.830;2022-07-22T10:27:50;7.37;;;6.77;;
2029;SDS011;1020;48.854;8.830;2022-07-22T10:30:19;6.93;;;6.43;;
2029;SDS011;1020;48.854;8.830;2022-07-22T10:33:04;6.60;;;6.20;;
2029;SDS011;1020;48.854;8.830;2022-07-22T10:35:33;7.30;;;6.60;;
2029;SDS011;1020;48.854;8.830;2022-07-22T10:38:05;8.00;;;7.20;;
2029;SDS011;1020;48.854;8.830;2022-07-22T10:40:46;8.43;;;7.60;;
2029;SDS011;1020;48.854;8.830;2022-07-22T10:43:15;6.97;;;6.27;;
2029;SDS011;1020;48.854;8.830;2022-07-22T10:45:48;7.70;;;7.20;;
2029;SDS011;1020;48.854;8.830;2022-07-22T10:48:17;8.03;;;7.27;;
2029;SDS011;1020;48.854;8.830;2022-07-22T10:50:47;7.37;;;6.73;;
2029;SDS011;1020;48.854;8.830;2022-07-22T10:53:18;7.47;;;6.97;;
2029;SDS011;1020;48.854;8.830;2022-07-22T10:56:03;6.37;;;5.87;;
2029;SDS011;1020;48.854;8.830;2022-07-22T11:01:25;6.73;;;6.27;;
2029;SDS011;1020;48.854;8.830;2022-07-22T11:03:54;7.37;;;6.87;;
2029;SDS011;1020;48.854;8.830;2022-07-22T11:06:23;6.90;;;6.40;;
2029;SDS011;1020;48.854;8.830;2022-07-22T11:08:54;7.40;;;6.90;;
2029;SDS011;1020;48.854;8.830;2022-07-22T11:11:31;7.40;;;6.90;;
2029;SDS011;1020;48.854;8.830;2022-07-22T11:14:03;7.50;;;6.90;;
2029;SDS011;1020;48.854;8.830;2022-07-22T11:16:36;7.17;;;6.77;;
2029;SDS011;1020;48.854;8.830;2022-07-22T11:19:04;7.90;;;7.27;;
2029;SDS011;1020;48.854;8.830;2022-07-22T11:21:32;6.80;;;6.20;;
2029;SDS011;1020;48.854;8.830;2022-07-22T11:24:01;6.80;;;6.37;;
2029;SDS011;1020;48.854;8.830;2022-07-22T11:26:32;6.10;;;5.70;;
2029;SDS011;1020;48.854;8.830;2022-07-22T11:29:02;6.20;;;5.80;;
2029;SDS011;1020;48.854;8.830;2022-07-22T11:31:29;7.10;;;6.60;;
2029;SDS011;1020;48.854;8.830;2022-07-22T11:34:04;6.33;;;6.03;;
2029;SDS011;1020;48.854;8.830;2022-07-22T11:36:32;7.00;;;6.50;;
2029;SDS011;1020;48.854;8.830;2022-07-22T11:39:03;6.70;;;6.30;;
2029;SDS011;1020;48.854;8.830;2022-07-22T11:41:30;7.10;;;6.60;;
2029;SDS011;1020;48.854;8.830;2022-07-22T11:43:58;7.07;;;6.57;;
2029;SDS011;1020;48.854;8.830;2022-07-22T11:46:25;7.80;;;6.70;;
2029;SDS011;1020;48.854;8.830;2022-07-22T11:48:53;6.60;;;6.10;;
2029;SDS011;1020;48.854;8.830;2022-07-22T11:51:23;6.73;;;6.30;;
2029;SDS011;1020;48.854;8.830;2022-07-22T11:53:55;6.30;;;5.90;;
2029;SDS011;1020;48.854;8.830;2022-07-22T11:56:24;6.20;;;5.77;;
2029;SDS011;1020;48.854;8.830;2022-07-22T11:58:52;6.70;;;6.20;;
2029;SDS011;1020;48.854;8.830;2022-07-22T12:01:21;7.23;;;6.73;;
2029;SDS011;1020;48.854;8.830;2022-07-22T12:03:49;7.83;;;7.27;;
2029;SDS011;1020;48.854;8.830;2022-07-22T12:06:17;7.80;;;7.30;;
2029;SDS011;1020;48.854;8.830;2022-07-22T12:08:46;7.30;;;6.57;;
2029;SDS011;1020;48.854;8.830;2022-07-22T12:11:16;6.93;;;6.43;;
2029;SDS011;1020;48.854;8.830;2022-07-22T12:13:47;7.23;;;6.63;;
2029;SDS011;1020;48.854;8.830;2022-07-22T12:16:18;6.73;;;6.13;;
2029;SDS011;1020;48.854;8.830;2022-07-22T12:18:52;6.30;;;5.90;;
2029;SDS011;1020;48.854;8.830;2022-07-22T12:21:20;7.27;;;6.60;;
2029;SDS011;1020;48.854;8.830;2022-07-22T12:23:52;6.50;;;6.00;;
2029;SDS011;1020;48.854;8.830;2022-07-22T12:29:21;6.20;;;5.80;;
2029;SDS011;1020;48.854;8.830;2022-07-22T12:31:50;6.10;;;5.57;;
2029;SDS011;1020;48.854;8.830;2022-07-22T12:34:28;7.67;;;5.90;;
2029;SDS011;1020;48.854;8.830;2022-07-22T12:37:00;6.10;;;5.70;;
2029;SDS011;1020;48.854;8.830;2022-07-22T12:39:38;6.90;;;6.30;;
2029;SDS011;1020;48.854;8.830;2022-07-22T12:42:15;6.17;;;5.77;;
2029;SDS011;1020;48.854;8.830;2022-07-22T12:44:50;5.93;;;5.53;;
2029;SDS011;1020;48.854;8.830;2022-07-22T12:50:18;5.53;;;5.13;;
2029;SDS011;1020;48.854;8.830;2022-07-22T12:52:51;5.37;;;4.90;;
2029;SDS011;1020;48.854;8.830;2022-07-22T12:55:19;5.27;;;4.77;;
2029;SDS011;1020;48.854;8.830;2022-07-22T12:57:46;5.07;;;4.73;;
2029;SDS011;1020;48.854;8.830;2022-07-22T13:00:17;5.73;;;5.17;;
2029;SDS011;1020;48.854;8.830;2022-07-22T13:02:45;5.00;;;4.73;;
2029;SDS011;1020;48.854;8.830;2022-07-22T13:05:12;6.00;;;5.30;;
2029;SDS011;1020;48.854;8.830;2022-07-22T13:07:38;5.87;;;5.37;;
2029;SDS011;1020;48.854;8.830;2022-07-22T13:10:06;6.03;;;5.63;;
2029;SDS011;1020;48.854;8.830;2022-07-22T13:12:34;5.77;;;5.37;;
2029;SDS011;1020;48.854;8.830;2022-07-22T13:15:01;6.10;;;5.70;;
2029;SDS011;1020;48.854;8.830;2022-07-22T13:17:29;6.33;;;5.73;;
2029;SDS011;1020;48.854;8.830;2022-07-22T13:19:56;6.60;;;6.10;;
2029;SDS011;1020;48.854;8.830;2022-07-22T13:22:22;6.20;;;5.80;;
2029;SDS011;1020;48.854;8.830;2022-07-22T13:24:49;6.53;;;6.07;;
2029;SDS011;1020;48.854;8.830;2022-07-22T13:27:16;6.17;;;5.77;;
2029;SDS011;1020;48.854;8.830;2022-07-22T13:29:43;6.13;;;5.73;;
2029;SDS011;1020;48.854;8.830;2022-07-22T13:32:10;5.90;;;5.50;;
2029;SDS011;1020;48.854;8.830;2022-07-22T13:34:38;5.63;;;5.23;;
2029;SDS011;1020;48.854;8.830;2022-07-22T13:37:05;6.43;;;6.00;;
2029;SDS011;1020;48.854;8.830;2022-07-22T13:39:32;5.97;;;5.60;;
2029;SDS011;1020;48.854;8.830;2022-07-22T13:41:59;6.70;;;6.03;;
2029;SDS011;1020;48.854;8.830;2022-07-22T13:44:25;6.30;;;5.90;;
2029;SDS011;1020;48.854;8.830;2022-07-22T13:46:53;6.17;;;5.77;;
2029;SDS011;1020;48.854;8.830;2022-07-22T13:49:21;5.77;;;5.37;;
2029;SDS011;1020;48.854;8.830;2022-07-22T13:51:50;6.37;;;5.80;;
2029;SDS011;1020;48.854;8.830;2022-07-22T13:54:16;5.47;;;4.97;;
2029;SDS011;1020;48.854;8.830;2022-07-22T13:56:43;5.70;;;5.40;;
2029;SDS011;1020;48.854;8.830;2022-07-22T13:59:12;6.00;;;5.60;;
2029;SDS011;1020;48.854;8.830;2022-07-22T14:01:39;5.83;;;5.43;;
2029;SDS011;1020;48.854;8.830;2022-07-22T14:04:06;6.07;;;5.50;;
2029;SDS011;1020;48.854;8.830;2022-07-22T14:06:33;8.03;;;6.00;;
2029;SDS011;1020;48.854;8.830;2022-07-22T14:09:01;5.30;;;5.00;;
2029;SDS011;1020;48.854;8.830;2022-07-22T14:11:29;5.77;;;5.20;;
2029;SDS011;1020;48.854;8.830;2022-07-22T14:13:56;5.40;;;5.10;;
2029;SDS011;1020;48.854;8.830;2022-07-22T14:16:23;6.03;;;5.43;;
2029;SDS011;1020;48.854;8.830;2022-07-22T14:19:03;5.53;;;5.13;;
2029;SDS011;1020;48.854;8.830;2022-07-22T14:21:30;4.77;;;4.30;;
2029;SDS011;1020;48.854;8.830;2022-07-22T14:23:57;5.73;;;5.30;;
2029;SDS011;1020;48.854;8.830;2022-07-22T14:26:26;6.07;;;5.77;;
2029;SDS011;1020;48.854;8.830;2022-07-22T14:28:53;6.33;;;6.03;;
2029;SDS011;1020;48.854;8.830;2022-07-22T14:31:20;6.30;;;5.90;;
2029;SDS011;1020;48.854;8.830;2022-07-22T14:33:46;6.03;;;5.37;;
2029;SDS011;1020;48.854;8.830;2022-07-22T14:36:13;5.80;;;5.40;;
2029;SDS011;1020;48.854;8.830;2022-07-22T14:38:40;6.17;;;5.77;;
2029;SDS011;1020;48.854;8.830;2022-07-22T14:41:07;5.77;;;5.47;;
2029;SDS011;1020;48.854;8.830;2022-07-22T14:43:36;5.40;;;5.00;;
2029;SDS011;1020;48.854;8.830;2022-07-22T14:46:03;5.07;;;4.70;;
2029;SDS011;1020;48.854;8.830;2022-07-22T14:48:32;5.67;;;5.30;;
2029;SDS011;1020;48.854;8.830;2022-07-22T14:50:59;5.47;;;5.17;;
2029;SDS011;1020;48.854;8.830;2022-07-22T14:53:25;6.10;;;5.50;;
2029;SDS011;1020;48.854;8.830;2022-07-22T14:55:52;5.63;;;5.20;;
2029;SDS011;1020;48.854;8.830;2022-07-22T14:58:19;5.73;;;5.43;;
2029;SDS011;1020;48.854;8.830;2022-07-22T15:00:47;5.37;;;4.90;;
2029;SDS011;1020;48.854;8.830;2022-07-22T15:03:14;6.97;;;4.97;;
2029;SDS011;1020;48.854;8.830;2022-07-22T15:05:40;4.90;;;4.60;;
2029;SDS011;1020;48.854;8.830;2022-07-22T15:08:07;4.93;;;4.57;;
2029;SDS011;1020;48.854;8.830;2022-07-22T15:10:34;5.37;;;5.00;;
2029;SDS011;1020;48.854;8.830;2022-07-22T15:13:01;5.30;;;5.00;;
2029;SDS011;1020;48.854;8.830;2022-07-22T15:15:28;5.43;;;5.13;;
2029;SDS011;1020;48.854;8.830;2022-07-22T15:17:57;5.40;;;5.10;;
2029;SDS011;1020;48.854;8.830;2022-07-22T15:20:24;6.23;;;5.83;;
2029;SDS011;1020;48.854;8.830;2022-07-22T15:22:51;5.43;;;5.13;;
2029;SDS011;1020;48.854;8.830;2022-07-22T15:25:18;6.00;;;5.70;;